Weather reports worldwide

Advertisment
Marknesse aws, Netherlands (6273): temperature & dewpoint: 12.01.2020 12:00:00 - 18.01.2020 12:00:00 (CET)Marknesse aws, Netherlands (6273): temperature 5cm & temperature -5cm: 12.01.2020 12:00:00 - 18.01.2020 12:00:00 (CET)Marknesse aws, Netherlands (6273): temperature -20cm & temperature -100cm: 12.01.2020 12:00:00 - 18.01.2020 12:00:00 (CET)Marknesse aws, Netherlands (6273): wind speed & gusts: 12.01.2020 12:00:00 - 18.01.2020 12:00:00 (CET)Marknesse aws, Netherlands (6273): wind direction: 12.01.2020 12:00:00 - 18.01.2020 12:00:00 (CET)Marknesse aws, Netherlands (6273): visibility: 12.01.2020 12:00:00 - 18.01.2020 12:00:00 (CET)Marknesse aws, Netherlands (6273): precipitation: 12.01.2020 12:00:00 - 18.01.2020 12:00:00 (CET)
Date & Time tt [°C] td [°C] tt 5cm [°C] tt -5cm [°C] tt -20cm [°C] tt -100cm [°C] ff [km/h] ff [kn] fx [km/h] fx [kn] dd vv [km] rr [mm]
18.01.2020 12:00:00 - - - - - - - - - - - - -
18.01.2020 11:00:00 4,3 3,6 3,8 4,5 6,3 7,5 14 8 25 14 SW 15 0,0
18.01.2020 10:00:00 3,8 3,1 3,5 4,4 6,3 7,5 18 10 29 16 SW 21 0,0
18.01.2020 09:00:00 3,0 2,4 2,5 4,4 6,4 7,5 18 10 29 16 SW 13 0,0
18.01.2020 08:00:00 3,1 2,3 2,5 4,6 6,4 7,5 18 10 25 14 SSW 32 0,0
18.01.2020 07:00:00 3,9 2,5 3,2 4,7 6,5 7,5 18 10 29 16 SW 34 0,0
18.01.2020 06:00:00 3,6 2,6 2,8 4,8 6,6 7,5 18 10 29 16 SW 21 0,0
18.01.2020 05:00:00 3,7 2,7 3,0 5,0 6,6 7,5 22 12 32 18 SW 18 0,0
18.01.2020 04:00:00 3,9 2,6 3,1 5,2 6,7 7,5 18 10 29 16 SSW 34 0,0
18.01.2020 03:00:00 4,2 2,8 3,5 5,4 6,7 7,5 22 12 29 16 SW 33 0,0
18.01.2020 02:00:00 4,7 3,0 4,2 5,6 6,8 7,5 22 12 29 16 SW 31 0,0
18.01.2020 01:00:00 5,4 3,2 4,6 5,8 6,8 7,5 14 8 22 12 SW 32 0,0
18.01.2020 00:00:00 4,8 3,2 3,8 6,1 6,8 7,5 11 6 40 21 SW 38 0,0
17.01.2020 23:00:00 5,4 3,0 4,9 6,4 6,8 7,5 29 16 47 25 W 42 0,1
17.01.2020 22:00:00 5,9 3,9 5,6 6,6 6,8 7,5 29 16 58 31 WSW 31 0,0
17.01.2020 21:00:00 7,0 4,2 6,7 6,9 6,8 7,5 25 14 50 27 WSW 39 0,0
17.01.2020 20:00:00 7,9 4,4 7,2 7,0 6,8 7,5 25 14 47 25 SW 39 0,0
17.01.2020 19:00:00 7,9 6,4 7,1 7,2 6,8 7,5 18 10 36 19 SW 27 0,0
17.01.2020 18:00:00 8,4 7,4 7,6 7,4 6,8 7,5 14 8 25 14 SSW 20 0,0
17.01.2020 17:00:00 8,6 8,1 8,2 7,4 6,7 7,5 14 8 22 12 SSW 1,0 0,0
17.01.2020 16:00:00 8,7 8,4 8,6 7,4 6,7 7,5 14 8 25 14 SSW 12 0,4
17.01.2020 15:00:00 8,5 8,3 8,4 7,3 6,7 7,5 18 10 25 14 SSW 3,8 0,4
17.01.2020 14:00:00 8,2 7,9 8,3 7,1 6,6 7,5 14 8 25 14 SSW 3,5 0,4
17.01.2020 13:00:00 8,3 7,6 8,4 7,0 6,6 7,5 18 10 32 18 SSW 6 0,2
17.01.2020 12:00:00 8,4 7,6 8,2 6,8 6,6 7,5 14 8 32 18 SSW 16 0,1
17.01.2020 11:00:00 8,9 6,4 8,7 6,5 6,6 7,5 22 12 36 19 SSW 34 0,0
17.01.2020 10:00:00 9,1 5,8 8,6 6,3 6,6 7,5 18 10 29 16 SSW 55 0,0
17.01.2020 09:00:00 8,0 5,0 7,3 6,2 6,6 7,5 18 10 29 16 S 52 0,0
17.01.2020 08:00:00 7,6 4,7 6,8 6,2 6,6 7,5 18 10 32 18 S 50 0,0
17.01.2020 07:00:00 8,2 4,8 7,5 6,3 6,6 7,4 22 12 40 21 S 50 0,0
17.01.2020 06:00:00 8,2 4,9 7,4 6,4 6,6 7,4 25 14 40 21 S 46 0,0
17.01.2020 05:00:00 8,5 5,1 7,7 6,4 6,6 7,4 25 14 40 21 SSE 43 0,0
17.01.2020 04:00:00 9,4 5,3 8,6 6,3 6,6 7,4 25 14 40 21 S 57 0,0
17.01.2020 03:00:00 9,0 5,3 8,3 6,2 6,7 7,4 25 14 40 21 S 42 0,0
17.01.2020 02:00:00 8,1 5,2 7,1 6,2 6,7 7,4 22 12 32 18 S 37 0,0
17.01.2020 01:00:00 8,1 5,4 7,2 6,2 6,7 7,4 22 12 36 19 SSE 34 0,0
17.01.2020 00:00:00 8,3 5,4 7,4 6,3 6,7 7,4 25 14 40 21 SSE 44 0,0
16.01.2020 23:00:00 8,3 5,5 7,4 6,3 6,7 7,4 29 16 40 21 SSE 40 0,0
16.01.2020 22:00:00 8,3 5,4 7,3 6,3 6,7 7,4 25 14 43 23 SSE 47 0,0
16.01.2020 21:00:00 8,6 5,3 7,6 6,4 6,7 7,4 32 18 50 27 SSE 53 0,0
16.01.2020 20:00:00 8,2 5,3 7,2 6,4 6,7 7,4 29 16 40 21 SSE 46 0,0
16.01.2020 19:00:00 8,0 5,6 7,1 6,6 6,7 7,4 25 14 36 19 SSE 34 0,0
16.01.2020 18:00:00 7,8 5,7 7,0 6,8 6,7 7,4 22 12 36 19 SSE 31 0,0
16.01.2020 17:00:00 8,1 6,0 7,4 7,0 6,6 7,4 25 14 32 18 SSE 29 0,0
16.01.2020 16:00:00 8,9 6,4 8,5 7,0 6,6 7,4 22 12 32 18 SSE 33 0,0
16.01.2020 15:00:00 8,9 6,5 9,0 6,9 6,5 7,4 22 12 32 18 SSE 33 0,0
16.01.2020 14:00:00 8,6 6,4 8,9 6,6 6,5 7,4 22 12 32 18 SSE 29 0,0
16.01.2020 13:00:00 8,3 5,8 8,5 6,1 6,6 7,4 18 10 29 16 SSE 35 0,0
16.01.2020 12:00:00 7,3 5,4 7,5 5,6 6,6 7,4 18 10 25 14 S 26 0,0
16.01.2020 11:00:00 5,4 4,5 5,4 5,2 6,7 7,4 18 10 22 12 SSE 14 0,0
16.01.2020 10:00:00 5,1 4,2 4,8 5,1 6,7 7,4 14 8 22 12 S 12 0,0
16.01.2020 09:00:00 4,3 3,8 3,7 5,1 6,8 7,4 18 10 22 12 S 0,2 0,0
16.01.2020 08:00:00 4,5 4,0 3,9 5,2 6,8 7,4 14 8 22 12 S 7 0,0
16.01.2020 07:00:00 4,4 4,0 3,6 5,3 6,9 7,4 14 8 22 12 SSW 4,8 0,0
16.01.2020 06:00:00 4,5 4,1 3,8 5,4 7,0 7,4 14 8 25 14 SSW 5 0,0
16.01.2020 05:00:00 4,5 4,1 3,8 5,6 7,0 7,4 14 8 22 12 SSW 5 0,0
16.01.2020 04:00:00 5,0 4,4 4,3 5,7 7,1 7,4 18 10 25 14 SSW 10 0,0
16.01.2020 03:00:00 5,4 4,7 4,8 5,8 7,2 7,3 18 10 29 16 SSW 12 0,0
16.01.2020 02:00:00 5,3 4,6 4,5 6,0 7,2 7,3 18 10 25 14 SW 11 0,0
16.01.2020 01:00:00 5,5 4,8 4,8 6,1 7,3 7,3 18 10 29 16 SW 11 0,0
16.01.2020 00:00:00 5,4 4,7 4,6 6,3 7,4 7,3 18 10 25 14 SW 10 0,0
15.01.2020 23:00:00 5,6 4,7 4,9 6,5 7,4 7,3 18 10 25 14 SW 19 0,0
15.01.2020 22:00:00 5,6 4,5 4,9 6,7 7,5 7,3 18 10 25 14 SW 21 0,0
15.01.2020 21:00:00 5,9 4,7 5,1 7,0 7,5 7,3 18 10 25 14 SW 35 0,0
15.01.2020 20:00:00 6,0 5,1 5,2 7,4 7,5 7,3 14 8 22 12 SW 31 0,0
15.01.2020 19:00:00 6,9 5,9 6,2 7,7 7,5 7,3 14 8 25 14 SW 33 0,0
15.01.2020 18:00:00 7,1 6,1 6,8 7,9 7,5 7,3 7 4 22 12 SW 57 0,1
15.01.2020 17:00:00 7,3 6,3 7,1 8,2 7,5 7,3 14 8 47 25 W 15 1,2
15.01.2020 16:00:00 9,6 7,5 9,2 8,3 7,5 7,3 36 19 58 31 SSW 14 0,2
15.01.2020 15:00:00 9,9 7,0 9,6 8,3 7,5 7,3 40 21 58 31 SSW 30 0,0
15.01.2020 14:00:00 10,2 6,7 9,4 8,3 7,5 7,3 36 19 58 31 SSW 24 0,4
15.01.2020 13:00:00 10,5 6,5 10,0 8,3 7,4 7,3 40 21 58 31 SSW 29 0,1
15.01.2020 12:00:00 11,1 6,1 10,6 8,2 7,4 7,3 36 19 54 29 SSW 48 0,0
15.01.2020 11:00:00 10,9 6,1 10,4 8,2 7,4 7,3 36 19 68 37 SSW 46 0,0
15.01.2020 10:00:00 10,7 6,1 10,4 8,2 7,4 7,3 36 19 54 29 SSW 47 0,0
15.01.2020 09:00:00 11,0 6,2 10,4 8,2 7,4 7,3 36 19 58 31 SSW 59 0,0
15.01.2020 08:00:00 10,7 6,2 10,0 8,3 7,4 7,3 40 21 61 33 SSW 49 0,0
15.01.2020 07:00:00 10,9 6,6 10,2 8,5 7,4 7,3 40 21 68 37 SSW 54 0,0
15.01.2020 06:00:00 11,3 7,2 10,8 8,6 7,3 7,3 36 19 58 31 SSW 74 0,0
15.01.2020 05:00:00 11,3 7,9 10,7 8,7 7,3 7,3 36 19 61 33 SSW 71 0,0
15.01.2020 04:00:00 11,2 8,5 10,7 8,7 7,3 7,3 36 19 58 31 SSW 49 0,1
15.01.2020 03:00:00 11,1 9,2 10,6 8,8 7,2 7,3 36 19 58 31 SSW 20 0,7
15.01.2020 02:00:00 11,3 9,5 10,7 8,7 7,2 7,3 40 21 58 31 SSW 27 0,3
15.01.2020 01:00:00 11,1 9,6 10,7 8,7 7,1 7,3 40 21 61 33 SSW 21 0,2
15.01.2020 00:00:00 11,2 9,4 10,7 8,6 7,1 7,3 40 21 61 33 SSW 14 0,1
14.01.2020 23:00:00 12,2 8,9 11,8 8,5 7,0 7,3 47 25 65 35 SSW 74 0,0
14.01.2020 22:00:00 12,2 9,0 11,8 8,4 7,0 7,3 43 23 65 35 SSW 53 0,0
14.01.2020 21:00:00 11,9 8,9 11,4 8,2 7,0 7,3 36 19 58 31 SSW 70 0,0
14.01.2020 20:00:00 11,4 8,4 10,8 8,1 6,9 7,3 36 19 61 33 SSW 48 0,0
14.01.2020 19:00:00 10,9 7,8 10,6 8,0 6,9 7,3 40 21 68 37 SSW 68 0,0
14.01.2020 18:00:00 10,8 7,8 10,2 8,0 6,9 7,3 36 19 54 29 S 60 0,0
14.01.2020 17:00:00 10,3 8,0 9,8 8,0 6,8 7,3 32 18 50 27 S 61 0,0
14.01.2020 16:00:00 9,9 8,2 9,5 8,0 6,8 7,3 29 16 43 23 S 38 0,1
14.01.2020 15:00:00 9,7 8,2 9,5 7,9 6,7 7,3 29 16 43 23 S 31 0,1
14.01.2020 14:00:00 9,9 8,3 9,8 7,8 6,7 7,3 32 18 47 25 SSW 52 0,0
14.01.2020 13:00:00 9,7 8,3 9,8 7,7 6,7 7,3 22 12 36 19 SSW 38 0,0
14.01.2020 12:00:00 9,2 7,3 9,1 7,5 6,6 7,3 22 12 36 19 SSW 45 0,0
14.01.2020 11:00:00 8,8 6,9 8,4 7,5 6,6 7,3 22 12 36 19 SSW 39 0,0
14.01.2020 10:00:00 8,6 7,1 8,1 7,5 6,6 7,3 22 12 40 21 SW 38 0,0
14.01.2020 09:00:00 8,7 7,9 8,5 7,6 6,5 7,3 22 12 47 25 SW 26 0,8
14.01.2020 08:00:00 8,9 8,5 8,8 7,6 6,4 7,3 29 16 47 25 SW 10 0,6
14.01.2020 07:00:00 9,2 8,5 9,0 7,6 6,4 7,3 32 18 54 29 SSW 15 0,9
14.01.2020 06:00:00 9,6 8,4 9,2 7,5 6,3 7,3 36 19 58 31 SSW 12 1,6
14.01.2020 05:00:00 9,6 8,3 9,2 7,4 6,3 7,3 36 19 50 27 S 10 1,5
14.01.2020 04:00:00 9,6 8,2 9,2 7,2 6,3 7,3 36 19 58 31 SSW 11 1,4
14.01.2020 03:00:00 9,7 8,0 9,2 7,1 6,2 7,3 36 19 58 31 S 17 0,8
14.01.2020 02:00:00 10,0 7,5 9,4 6,9 6,2 7,3 36 19 61 33 S 16 0,0
14.01.2020 01:00:00 10,1 7,0 9,8 6,7 6,2 7,3 36 19 58 31 S 74 0,0
14.01.2020 00:00:00 9,6 6,8 9,1 6,5 6,1 7,3 32 18 54 29 S 71 0,0
13.01.2020 23:00:00 8,9 6,5 8,6 6,3 6,1 7,3 32 18 54 29 S 64 0,0
13.01.2020 22:00:00 8,8 6,3 8,4 6,1 6,1 7,3 36 19 50 27 S 43 0,0
13.01.2020 21:00:00 8,3 5,7 7,8 6,0 6,1 7,3 29 16 47 25 S 47 0,0
13.01.2020 20:00:00 7,3 5,0 6,9 5,9 6,1 7,3 25 14 40 21 S 36 0,0
13.01.2020 19:00:00 6,8 4,5 6,4 5,9 6,1 7,3 29 16 40 21 SSE 40 0,0
13.01.2020 18:00:00 6,3 4,5 5,8 6,0 6,1 7,3 25 14 36 19 SSE 29 0,0
13.01.2020 17:00:00 6,9 4,4 6,1 6,3 6,1 7,3 18 10 29 16 SSE 33 0,0
13.01.2020 16:00:00 7,7 4,7 7,2 6,4 6,0 7,3 18 10 32 18 S 32 0,0
13.01.2020 15:00:00 8,1 5,2 8,1 6,4 6,0 7,3 18 10 29 16 S 25 0,0
13.01.2020 14:00:00 8,0 5,5 8,3 6,3 6,0 7,3 18 10 32 18 S 19 0,0
13.01.2020 13:00:00 7,1 5,3 7,2 6,1 5,9 7,3 25 14 36 19 SSW 16 0,0
13.01.2020 12:00:00 6,8 5,4 6,8 5,8 5,9 7,3 25 14 36 19 SSW 11 0,0
13.01.2020 11:00:00 6,3 5,3 6,3 5,6 5,9 7,3 25 14 36 19 SSW 9 0,0
13.01.2020 10:00:00 6,1 5,2 5,9 5,5 5,9 7,3 22 12 32 18 SSW 8 0,0
13.01.2020 09:00:00 6,3 5,6 6,0 5,4 5,9 7,3 22 12 29 16 SSW 8 0,0
13.01.2020 08:00:00 6,0 5,3 5,7 5,3 5,9 7,3 14 8 29 16 SW 10 0,0
13.01.2020 07:00:00 6,0 5,5 5,6 5,3 6,0 7,3 18 10 32 18 SSW 8 0,0
13.01.2020 06:00:00 5,8 5,5 5,5 5,1 6,0 7,3 18 10 25 14 SSW 6 0,0
13.01.2020 05:00:00 5,9 5,5 5,4 5,0 6,0 7,3 14 8 25 14 SSW 6 0,0
13.01.2020 04:00:00 5,7 5,2 5,0 4,9 6,1 7,3 11 6 18 10 SSW 12 0,0
13.01.2020 03:00:00 5,8 5,1 5,1 4,9 6,1 7,3 11 6 14 8 SSW 26 0,0
13.01.2020 02:00:00 4,5 4,3 3,9 4,9 6,2 7,3 7 4 11 6 SSW 19 0,0
13.01.2020 01:00:00 4,2 4,0 2,2 5,0 6,2 7,3 4 2 11 6 SW 20 0,0
13.01.2020 00:00:00 4,3 3,9 1,7 5,3 6,2 7,3 7 4 14 8 S 22 0,0
12.01.2020 23:00:00 4,2 3,6 2,9 5,6 6,2 7,3 7 4 14 8 SW 24 0,0
12.01.2020 22:00:00 5,8 4,6 4,9 5,9 6,2 7,3 11 6 22 12 WSW 31 0,0
12.01.2020 21:00:00 5,3 4,0 4,5 6,2 6,2 7,3 7 4 22 12 WSW 39 0,0
12.01.2020 20:00:00 6,6 4,7 5,6 6,5 6,2 7,3 14 8 36 19 W 40 0,0
12.01.2020 19:00:00 7,8 5,1 7,2 6,7 6,2 7,3 25 14 43 23 W 44 0,1
12.01.2020 18:00:00 9,0 7,0 8,6 6,7 6,1 7,3 25 14 47 25 WSW 26 0,0
12.01.2020 17:00:00 9,2 7,1 8,8 6,6 6,1 7,3 22 12 47 25 WSW 27 0,0
12.01.2020 16:00:00 8,5 7,7 8,2 6,4 6,1 7,3 25 14 43 23 SW 21 0,2
12.01.2020 15:00:00 7,8 7,3 7,6 6,2 6,0 7,3 29 16 47 25 SW 13 0,3
12.01.2020 14:00:00 7,3 6,7 7,2 6,0 6,0 7,3 29 16 47 25 SW 22 0,0
12.01.2020 13:00:00 6,7 6,0 6,5 5,8 6,0 7,3 32 18 54 29 SSW 16 0,1
12.01.2020 12:00:00 6,3 5,4 6,1 5,7 6,0 7,3 32 18 54 29 SSW 16 0,2

tt = temperature
td = dewpoint
tt 5cm = temperature 5cm
tt -5cm = temperature -5cm
tt -20cm = temperature -20cm
tt -100cm = temperature -100cm
ff = wind speed
fx = gusts
dd = wind direction
vv = visibility
rr = precipitation

Next stations